Time;durP1;ratioP1;P1;durP2;ratioP2;P2;SDS_P1;SDS_P2;PMS_P1;PMS_P2;Temp;Humidity;BMP_temperature;BMP_pressure;BME280_temperature;BME280_humidity;BME280_pressure;Samples;Min_cycle;Max_cycle;Signal;HPM_P1;HPM_P2
2023/07/26 00:00:50;;;;;;;0.20;0.20;;;;;;;17.99;100.00;98710.69;6129851;23;20005;-89
2023/07/26 00:03:15;;;;;;;0.63;0.47;;;;;;;17.97;100.00;98699.97;6153406;23;20021;-89
2023/07/26 00:05:40;;;;;;;0.93;0.75;;;;;;;17.87;100.00;98678.38;6126565;23;20644;-89
2023/07/26 00:08:06;;;;;;;0.93;0.77;;;;;;;17.92;100.00;98680.34;6129307;23;20021;-89
2023/07/26 00:10:32;;;;;;;1.40;1.08;;;;;;;17.89;100.00;98682.16;6131673;23;20457;-90
2023/07/26 00:12:57;;;;;;;0.85;0.77;;;;;;;17.94;100.00;98686.22;6130538;23;20020;-90
2023/07/26 00:15:23;;;;;;;0.35;0.35;;;;;;;17.84;100.00;98696.22;6153841;23;20016;-89
2023/07/26 00:17:48;;;;;;;1.00;0.57;;;;;;;17.95;100.00;98718.63;6179008;23;20015;-89
2023/07/26 00:20:14;;;;;;;1.05;0.55;;;;;;;17.88;100.00;98724.75;6105655;23;20039;-89
2023/07/26 00:22:40;;;;;;;0.20;0.20;;;;;;;17.93;100.00;98726.78;6153496;23;20013;-89
2023/07/26 00:25:06;;;;;;;0.55;0.55;;;;;;;17.91;100.00;98730.13;6129984;23;20009;-90
2023/07/26 00:27:33;;;;;;;0.90;0.40;;;;;;;17.91;100.00;98732.16;6154464;23;20009;-89
2023/07/26 00:29:59;;;;;;;0.40;0.40;;;;;;;17.97;100.00;98758.88;6130325;23;20013;-89
2023/07/26 00:32:26;;;;;;;0.35;0.35;;;;;;;17.97;100.00;98755.31;6129451;23;20009;-89
2023/07/26 00:34:52;;;;;;;0.10;0.10;;;;;;;18.03;100.00;98742.81;6153162;23;20013;-89
2023/07/26 00:37:17;;;;;;;0.10;0.10;;;;;;;18.06;100.00;98757.81;6179011;23;20365;-88
2023/07/26 00:39:43;;;;;;;0.47;0.47;;;;;;;18.07;100.00;98759.34;6105755;23;20409;-88
2023/07/26 00:42:09;;;;;;;0.82;0.82;;;;;;;18.06;100.00;98760.63;6180026;23;20013;-89
2023/07/26 00:44:34;;;;;;;0.00;0.00;;;;;;;18.11;100.00;98763.41;6105617;23;20333;-88
2023/07/26 00:47:00;;;;;;;0.50;0.50;;;;;;;18.12;100.00;98758.53;6153544;23;20535;-89
2023/07/26 00:49:26;;;;;;;0.80;0.80;;;;;;;18.14;100.00;98770.03;6130384;23;20012;-89
2023/07/26 00:51:53;;;;;;;0.22;0.22;;;;;;;18.09;100.00;98751.94;6128539;23;20024;-89
2023/07/26 00:54:20;;;;;;;0.32;0.32;;;;;;;18.12;100.00;98750.13;6154499;23;20009;-89
2023/07/26 00:56:45;;;;;;;0.00;0.00;;;;;;;18.09;100.00;98756.78;6130070;23;20023;-89
2023/07/26 00:59:12;;;;;;;0.57;0.43;;;;;;;18.09;100.00;98759.59;6154536;23;20014;-89
2023/07/26 01:01:39;;;;;;;0.13;0.13;;;;;;;18.05;100.00;98762.66;6129619;23;20190;-89
2023/07/26 01:04:05;;;;;;;0.08;0.08;;;;;;;17.99;100.00;98764.75;6153007;23;20017;-89
2023/07/26 01:06:34;;;;;;;2.20;1.10;;;;;;;17.93;100.00;98755.59;6178020;23;20009;-89
2023/07/26 01:09:11;;;;;;;0.45;0.45;;;;;;;17.89;100.00;98743.88;6178089;23;20021;-90
2023/07/26 01:12:02;;;;;;;0.38;0.38;;;;;;;17.95;100.00;98752.28;6129717;23;20393;-88
2023/07/26 01:14:41;;;;;;;3.08;1.02;;;;;;;17.93;100.00;98771.66;6178863;23;20446;-89
2023/07/26 01:17:08;;;;;;;0.30;0.30;;;;;;;17.90;100.00;98781.88;6129433;23;20456;-89
2023/07/26 01:19:33;;;;;;;0.22;0.20;;;;;;;17.85;100.00;98781.91;6129917;23;20047;-88
2023/07/26 01:21:59;;;;;;;0.30;0.30;;;;;;;17.78;100.00;98788.06;6127805;23;20390;-89
2023/07/26 01:24:25;;;;;;;0.20;0.20;;;;;;;17.76;100.00;98785.75;6105196;23;20008;-90
2023/07/26 01:26:51;;;;;;;0.20;0.20;;;;;;;17.63;100.00;98766.69;6128944;23;20009;-90
2023/07/26 01:29:16;;;;;;;0.25;0.25;;;;;;;17.60;100.00;98772.56;6154711;23;20019;-89
2023/07/26 01:31:42;;;;;;;0.22;0.22;;;;;;;17.68;100.00;98765.91;6153377;23;20095;-89
2023/07/26 01:34:09;;;;;;;0.20;0.20;;;;;;;17.69;100.00;98756.22;6127520;23;20040;-89
2023/07/26 01:36:35;;;;;;;0.47;0.47;;;;;;;17.70;100.00;98754.19;6152580;23;20004;-89
2023/07/26 01:39:02;;;;;;;0.22;0.20;;;;;;;17.77;100.00;98759.25;6104388;23;20022;-89
2023/07/26 01:41:28;;;;;;;1.45;0.75;;;;;;;17.72;100.00;98748.81;6104523;23;20028;-90
2023/07/26 01:43:54;;;;;;;0.77;0.77;;;;;;;17.73;100.00;98769.19;6104723;23;20005;-89
2023/07/26 01:46:19;;;;;;;0.30;0.30;;;;;;;17.78;100.00;98776.84;6154057;23;20095;-89
2023/07/26 01:48:45;;;;;;;1.00;0.90;;;;;;;17.80;100.00;98782.69;6153047;23;20017;-89
2023/07/26 01:51:12;;;;;;;0.45;0.45;;;;;;;17.80;100.00;98791.09;6104488;23;20081;-90
2023/07/26 01:53:41;;;;;;;1.65;0.70;;;;;;;17.80;100.00;98797.47;6104700;23;20009;-89
2023/07/26 01:56:07;;;;;;;0.47;0.47;;;;;;;17.83;100.00;98806.91;6153981;23;20341;-90
2023/07/26 01:58:32;;;;;;;0.32;0.32;;;;;;;17.87;100.00;98818.63;6129347;23;20009;-88
2023/07/26 02:01:03;;;;;;;2.08;0.98;;;;;;;17.87;100.00;98802.56;6128202;23;20458;-88
2023/07/26 02:03:29;;;;;;;0.20;0.20;;;;;;;17.83;100.00;98796.47;6104323;23;20083;-89
2023/07/26 02:05:54;;;;;;;0.57;0.28;;;;;;;17.83;100.00;98804.09;6127857;23;20017;-89
2023/07/26 02:08:21;;;;;;;0.40;0.20;;;;;;;17.84;100.00;98802.81;6128633;23;20028;-88
2023/07/26 02:10:47;;;;;;;0.20;0.20;;;;;;;17.90;100.00;98814.78;6129419;23;20445;-89
2023/07/26 02:13:13;;;;;;;0.63;0.63;;;;;;;17.87;100.00;98807.41;6153414;23;20445;-89
2023/07/26 02:15:39;;;;;;;0.20;0.20;;;;;;;17.89;100.00;98816.06;6152964;23;20064;-89
2023/07/26 02:18:05;;;;;;;1.00;1.00;;;;;;;17.90;100.00;98817.59;6127409;23;20353;-89
2023/07/26 02:20:31;;;;;;;0.20;0.20;;;;;;;17.78;100.00;98821.72;6176552;23;20001;-90
2023/07/26 02:22:57;;;;;;;0.43;0.43;;;;;;;17.78;100.00;98822.47;6153947;23;20020;-89
2023/07/26 02:25:23;;;;;;;1.50;0.50;;;;;;;17.84;100.00;98839.28;6128774;23;20504;-88
2023/07/26 02:27:48;;;;;;;1.05;0.60;;;;;;;17.83;100.00;98832.16;6129336;23;20009;-89
2023/07/26 02:30:14;;;;;;;0.50;0.50;;;;;;;17.75;100.00;98822.75;6104543;23;20072;-88
2023/07/26 02:32:51;;;;;;;0.90;0.55;;;;;;;17.78;100.00;98832.94;6153508;23;20017;-89
2023/07/26 02:35:17;;;;;;;1.13;0.98;;;;;;;17.66;100.00;98832.22;6105188;23;20013;-88
2023/07/26 02:37:42;;;;;;;0.65;0.52;;;;;;;17.70;100.00;98839.09;6105419;23;20060;-88
2023/07/26 02:40:09;;;;;;;1.77;0.98;;;;;;;17.69;100.00;98831.94;6127705;23;20393;-89
2023/07/26 02:42:34;;;;;;;0.40;0.40;;;;;;;17.69;100.00;98820.72;6128722;23;20001;-89
2023/07/26 02:45:00;;;;;;;0.25;0.25;;;;;;;17.73;100.00;98819.69;6128998;23;20024;-89
2023/07/26 02:47:25;;;;;;;0.45;0.45;;;;;;;17.68;100.00;98824.03;6130914;23;20337;-89
2023/07/26 02:49:51;;;;;;;0.75;0.38;;;;;;;17.69;100.00;98831.19;6179331;23;20017;-89
2023/07/26 02:52:16;;;;;;;0.28;0.28;;;;;;;17.63;100.00;98828.38;6130943;23;20016;-90
2023/07/26 02:54:42;;;;;;;0.30;0.30;;;;;;;17.56;100.00;98834.50;6130506;23;20064;-89
2023/07/26 02:57:07;;;;;;;0.60;0.50;;;;;;;17.60;100.00;98846.22;6105632;23;20008;-90
2023/07/26 02:59:33;;;;;;;0.10;0.10;;;;;;;17.60;100.00;98857.44;6105723;23;20056;-89
2023/07/26 03:01:58;;;;;;;0.52;0.52;;;;;;;17.56;100.00;98851.31;6130211;23;20013;-89
2023/07/26 03:04:24;;;;;;;0.38;0.22;;;;;;;17.58;100.00;98865.63;6106635;23;20220;-90
2023/07/26 03:06:50;;;;;;;0.75;0.60;;;;;;;17.53;100.00;98857.97;6129346;23;20013;-90
2023/07/26 03:09:16;;;;;;;0.60;0.60;;;;;;;17.55;100.00;98880.63;6130019;23;20012;-89
2023/07/26 03:11:42;;;;;;;0.10;0.10;;;;;;;17.50;100.00;98869.44;6156358;23;20013;-90
2023/07/26 03:14:07;;;;;;;0.90;0.63;;;;;;;17.53;100.00;98879.63;6154327;23;20319;-89
2023/07/26 03:16:33;;;;;;;0.32;0.32;;;;;;;17.46;100.00;98880.91;6130502;23;20009;-89
2023/07/26 03:18:58;;;;;;;0.00;0.00;;;;;;;17.44;100.00;98872.22;6154184;23;20017;-89
2023/07/26 03:21:24;;;;;;;1.40;1.30;;;;;;;17.45;100.00;98870.19;6104606;23;20016;-90
2023/07/26 03:23:50;;;;;;;0.30;0.22;;;;;;;17.40;100.00;98866.13;6129198;23;20449;-90
2023/07/26 03:26:15;;;;;;;0.43;0.28;;;;;;;17.39;100.00;98870.19;6155395;23;20036;-91
2023/07/26 03:28:41;;;;;;;0.40;0.40;;;;;;;17.36;100.00;98871.22;6130476;23;20020;-89
2023/07/26 03:31:07;;;;;;;0.08;0.08;;;;;;;17.41;100.00;98875.31;6105731;23;20091;-89
2023/07/26 03:33:32;;;;;;;0.00;0.00;;;;;;;17.27;100.00;98868.69;6154702;23;20016;-90
2023/07/26 03:35:58;;;;;;;0.10;0.10;;;;;;;17.27;100.00;98869.44;6178930;23;20013;-90
2023/07/26 03:38:24;;;;;;;0.73;0.73;;;;;;;17.22;100.00;98855.47;6130783;23;20012;-89
2023/07/26 03:40:49;;;;;;;0.40;0.25;;;;;;;17.24;100.00;98855.69;6154975;23;20016;-89
2023/07/26 03:43:15;;;;;;;0.43;0.43;;;;;;;17.26;100.00;98855.97;6129611;23;20063;-89
2023/07/26 03:45:40;;;;;;;0.20;0.20;;;;;;;17.27;100.00;98861.03;6129896;23;20017;-89
2023/07/26 03:48:06;;;;;;;0.30;0.30;;;;;;;17.23;100.00;98834.53;6154671;23;20474;-89
2023/07/26 03:50:32;;;;;;;3.92;0.50;;;;;;;17.28;100.00;98847.78;6128848;23;20013;-90
2023/07/26 03:52:58;;;;;;;0.32;0.30;;;;;;;17.28;100.00;98850.59;6155267;23;20464;-89
2023/07/26 03:55:23;;;;;;;0.20;0.20;;;;;;;17.28;100.00;98833.78;6130568;23;20016;-90
2023/07/26 03:57:49;;;;;;;0.40;0.40;;;;;;;17.27;100.00;98839.91;6154483;23;20088;-89
2023/07/26 04:00:15;;;;;;;0.40;0.32;;;;;;;17.20;100.00;98841.19;6104639;23;20353;-89
2023/07/26 04:02:40;;;;;;;0.15;0.15;;;;;;;17.29;100.00;98860.53;6130565;23;20020;-89
2023/07/26 04:05:06;;;;;;;0.40;0.40;;;;;;;17.20;100.00;98846.78;6153495;23;20107;-89
2023/07/26 04:07:35;;;;;;;1.98;0.68;;;;;;;17.04;100.00;98822.34;6104933;23;20059;-89
2023/07/26 04:10:01;;;;;;;0.15;0.15;;;;;;;17.13;100.00;98834.06;6154117;23;20013;-90
2023/07/26 04:12:26;;;;;;;0.20;0.20;;;;;;;17.13;100.00;98841.69;6131050;23;20009;-89
2023/07/26 04:14:51;;;;;;;0.50;0.50;;;;;;;17.10;100.00;98854.72;6105471;23;20256;-89
2023/07/26 04:17:17;;;;;;;0.00;0.00;;;;;;;17.09;100.00;98858.00;6129465;23;20021;-89
2023/07/26 04:19:43;;;;;;;0.00;0.00;;;;;;;17.03;100.00;98843.22;6128608;23;20469;-89
2023/07/26 04:22:08;;;;;;;0.28;0.25;;;;;;;17.06;100.00;98864.63;6129277;23;20413;-89
2023/07/26 04:24:34;;;;;;;0.57;0.57;;;;;;;17.06;100.00;98853.44;6129757;23;20429;-89
2023/07/26 04:26:59;;;;;;;0.20;0.20;;;;;;;17.14;100.00;98851.66;6153835;23;20047;-90
2023/07/26 04:29:25;;;;;;;0.47;0.47;;;;;;;17.09;100.00;98850.38;6129903;23;20072;-89
2023/07/26 04:31:51;;;;;;;0.28;0.22;;;;;;;17.16;100.00;98866.66;6105089;23;20060;-89
2023/07/26 04:34:16;;;;;;;0.00;0.00;;;;;;;17.19;100.00;98873.28;6105802;23;20055;-89
2023/07/26 04:36:42;;;;;;;0.35;0.35;;;;;;;17.23;100.00;98885.00;6128613;23;20040;-90
2023/07/26 04:39:08;;;;;;;0.13;0.13;;;;;;;17.25;100.00;98888.06;6105010;23;20017;-89
2023/07/26 04:41:33;;;;;;;3.75;1.40;;;;;;;17.28;100.00;98892.63;6130353;23;20009;-90
2023/07/26 04:43:59;;;;;;;0.30;0.20;;;;;;;17.35;100.00;98903.31;6129252;23;20020;-90
2023/07/26 04:46:24;;;;;;;0.30;0.30;;;;;;;17.38;100.00;98907.16;6105562;23;20007;-90
2023/07/26 04:48:50;;;;;;;0.10;0.10;;;;;;;17.39;100.00;98906.63;6127906;23;20116;-90
2023/07/26 04:51:15;;;;;;;1.02;0.95;;;;;;;17.44;100.00;98930.34;6151689;23;20104;-89
2023/07/26 04:53:41;;;;;;;0.75;0.75;;;;;;;17.43;100.00;98932.38;6104809;23;20005;-90
2023/07/26 04:56:07;;;;;;;0.60;0.60;;;;;;;17.49;100.00;98946.41;6129581;23;20016;-89
2023/07/26 04:58:32;;;;;;;0.15;0.15;;;;;;;17.48;100.00;98940.03;6130083;23;20396;-89
2023/07/26 05:00:58;;;;;;;0.45;0.45;;;;;;;17.50;100.00;98940.28;6128235;23;20025;-89
2023/07/26 05:03:24;;;;;;;0.10;0.10;;;;;;;17.46;100.00;98945.38;6129211;23;20491;-89
2023/07/26 05:05:50;;;;;;;0.35;0.30;;;;;;;17.51;100.00;98961.41;6152657;23;20125;-89
2023/07/26 05:08:16;;;;;;;0.70;0.45;;;;;;;17.50;100.00;98961.94;6129091;23;20048;-89
2023/07/26 05:10:42;;;;;;;0.73;0.47;;;;;;;17.49;100.00;98964.00;6153669;23;20020;-88
2023/07/26 05:13:07;;;;;;;0.77;0.77;;;;;;;17.50;100.00;98959.91;6129676;23;20008;-89
2023/07/26 05:15:33;;;;;;;0.10;0.10;;;;;;;17.50;100.00;98967.56;6153883;23;20017;-88
2023/07/26 05:17:58;;;;;;;1.08;0.98;;;;;;;17.49;100.00;98964.00;6129256;23;20008;-88
2023/07/26 05:20:24;;;;;;;0.00;0.00;;;;;;;17.51;100.00;98977.50;6128332;23;20449;-90
2023/07/26 05:22:49;;;;;;;0.30;0.30;;;;;;;17.44;100.00;98966.78;6128224;23;20028;-89
2023/07/26 05:25:15;;;;;;;1.52;1.15;;;;;;;17.45;100.00;98971.13;6126756;23;20021;-89
2023/07/26 05:27:40;;;;;;;5.78;0.60;;;;;;;17.36;100.00;98960.91;6129763;23;20345;-89
2023/07/26 05:30:06;;;;;;;4.47;0.65;;;;;;;17.36;100.00;98960.16;6104621;23;20075;-87
2023/07/26 05:32:32;;;;;;;0.65;0.57;;;;;;;17.39;100.00;98982.31;6154247;23;20023;-86
2023/07/26 05:34:58;;;;;;;0.75;0.75;;;;;;;17.37;100.00;98990.50;6128106;23;20120;-88
2023/07/26 05:37:25;;;;;;;0.03;0.03;;;;;;;17.30;100.00;98984.63;6129507;23;20088;-89
2023/07/26 05:39:51;;;;;;;0.57;0.43;;;;;;;17.35;100.00;99003.50;6129445;23;20020;-89
2023/07/26 05:42:17;;;;;;;1.75;0.82;;;;;;;17.35;100.00;98998.63;6152753;23;20789;-89
2023/07/26 05:44:42;;;;;;;0.10;0.10;;;;;;;17.36;100.00;98994.56;6127650;23;20066;-87
2023/07/26 05:47:11;;;;;;;5.93;0.25;;;;;;;17.40;100.00;99005.50;6151309;23;20064;-88
2023/07/26 05:49:41;;;;;;;0.55;0.55;;;;;;;17.32;100.00;98982.84;6129541;23;20322;-88
2023/07/26 05:52:07;;;;;;;0.40;0.40;;;;;;;17.33;100.00;99001.19;6104152;23;20013;-88
2023/07/26 05:54:32;;;;;;;0.55;0.55;;;;;;;17.36;100.00;99000.16;6154634;23;20828;-88
2023/07/26 05:56:58;;;;;;;0.22;0.22;;;;;;;17.35;100.00;99004.22;6129362;23;20035;-88
2023/07/26 05:59:23;;;;;;;3.10;1.98;;;;;;;17.37;100.00;99012.91;6129101;23;20013;-88
2023/07/26 06:01:49;;;;;;;1.00;0.80;;;;;;;17.36;100.00;99014.19;6127904;23;20017;-90
2023/07/26 06:04:17;;;;;;;0.45;0.30;;;;;;;17.29;100.00;99011.13;6105390;23;20450;-88
2023/07/26 06:06:42;;;;;;;0.30;0.30;;;;;;;17.27;100.00;99003.97;6151890;23;20059;-87
2023/07/26 06:09:09;;;;;;;0.57;0.57;;;;;;;17.30;100.00;99013.41;6147488;23;20079;-88
2023/07/26 06:11:34;;;;;;;0.80;0.43;;;;;;;17.23;100.00;99002.69;6123701;23;20021;-88
2023/07/26 06:14:00;;;;;;;0.25;0.25;;;;;;;17.18;100.00;99011.88;6124091;23;20505;-87
2023/07/26 06:16:27;;;;;;;0.10;0.10;;;;;;;17.16;100.00;99006.00;6146884;23;20021;-87
2023/07/26 06:18:52;;;;;;;0.20;0.20;;;;;;;17.21;100.00;99010.84;6120416;23;20009;-88
2023/07/26 06:21:19;;;;;;;0.08;0.08;;;;;;;17.27;100.00;99008.81;6098875;23;20327;-87
2023/07/26 06:23:45;;;;;;;0.57;0.57;;;;;;;17.23;100.00;99003.47;6177361;23;20013;-90
2023/07/26 06:26:11;;;;;;;1.25;0.45;;;;;;;17.33;100.00;99018.00;6124841;23;20020;-88
2023/07/26 06:28:40;;;;;;;0.17;0.17;;;;;;;17.28;100.00;99010.34;6100620;23;20020;-87
2023/07/26 06:31:06;;;;;;;0.15;0.15;;;;;;;17.22;100.00;99009.59;6124403;23;20070;-88
2023/07/26 06:33:31;;;;;;;0.52;0.35;;;;;;;17.20;100.00;99023.31;6128039;23;20116;-87
2023/07/26 06:35:57;;;;;;;0.28;0.28;;;;;;;17.25;100.00;99028.19;6149003;23;20008;-87
2023/07/26 06:38:23;;;;;;;0.13;0.13;;;;;;;17.15;100.00;99027.66;6151543;23;20024;-88
2023/07/26 06:40:49;;;;;;;0.25;0.25;;;;;;;17.18;100.00;99035.06;6152510;23;20021;-88
2023/07/26 06:43:17;;;;;;;0.22;0.22;;;;;;;17.07;100.00;99031.44;6152819;23;20001;-88
2023/07/26 06:45:47;;;;;;;0.10;0.10;;;;;;;17.04;100.00;99041.63;6127262;23;20048;-87
2023/07/26 06:48:13;;;;;;;0.10;0.10;;;;;;;16.99;100.00;99030.41;6153119;23;20064;-87
2023/07/26 06:50:40;;;;;;;0.17;0.17;;;;;;;17.04;100.00;99041.63;6152685;23;20016;-87
2023/07/26 06:53:05;;;;;;;0.00;0.00;;;;;;;16.90;100.00;99034.22;6128089;23;20020;-87
2023/07/26 06:55:35;;;;;;;0.45;0.45;;;;;;;16.97;100.00;99041.34;6129918;23;20349;-88
2023/07/26 06:58:01;;;;;;;0.20;0.20;;;;;;;16.83;100.00;99028.31;6152496;23;20350;-87
2023/07/26 07:00:26;;;;;;;0.20;0.20;;;;;;;16.88;100.00;99035.97;6128193;23;20012;-87
2023/07/26 07:03:00;;;;;;;0.85;0.43;;;;;;;16.94;100.00;99048.75;6149490;23;20017;-88
2023/07/26 07:05:30;;;;;;;0.40;0.35;;;;;;;16.95;100.00;99050.25;6152236;23;20013;-88
2023/07/26 07:07:55;;;;;;;0.30;0.30;;;;;;;16.93;100.00;99055.63;6102982;23;20445;-90
2023/07/26 07:10:22;;;;;;;0.10;0.10;;;;;;;16.95;100.00;99043.88;6153074;23;20115;-89
2023/07/26 07:12:48;;;;;;;0.17;0.17;;;;;;;17.04;100.00;99057.66;6128556;23;20099;-90
2023/07/26 07:15:14;;;;;;;0.32;0.20;;;;;;;17.05;100.00;99068.38;6152664;23;20434;-88
2023/07/26 07:17:40;;;;;;;0.20;0.20;;;;;;;17.14;100.00;99078.59;6153085;23;20283;-90
2023/07/26 07:20:07;;;;;;;0.10;0.10;;;;;;;17.22;100.00;99082.44;6127170;23;20412;-88
2023/07/26 07:22:36;;;;;;;0.22;0.08;;;;;;;17.07;100.00;99096.66;6102861;23;20021;-89
2023/07/26 07:25:05;;;;;;;0.22;0.20;;;;;;;16.92;100.00;99086.91;6128607;23;20009;-90
2023/07/26 07:27:30;;;;;;;0.20;0.20;;;;;;;16.95;100.00;99095.06;6152862;23;20088;-91
2023/07/26 07:29:56;;;;;;;0.00;0.00;;;;;;;17.02;100.00;99105.06;6151647;23;20115;-90
2023/07/26 07:32:24;;;;;;;0.10;0.10;;;;;;;17.07;100.00;99104.28;6153296;23;20008;-89
2023/07/26 07:34:53;;;;;;;0.10;0.10;;;;;;;17.07;100.00;99107.84;6154009;23;20785;-89
2023/07/26 07:37:20;;;;;;;0.40;0.32;;;;;;;16.94;100.00;99087.19;6154838;23;20037;-90
2023/07/26 08:06:04;;;;;;;0.20;0.20;;;;;;;17.23;100.00;99140.00;6246100;23;20046;-96
2023/07/26 08:08:42;;;;;;;0.00;0.00;;;;;;;17.19;100.00;99147.91;6203747;23;20370;-95
2023/07/26 08:11:08;;;;;;;0.10;0.10;;;;;;;17.20;100.00;99138.22;6224547;23;20023;-94
2023/07/26 08:13:34;;;;;;;0.13;0.13;;;;;;;17.21;100.00;99162.94;6197794;23;20405;-94
2023/07/26 08:16:00;;;;;;;0.10;0.10;;;;;;;17.30;100.00;99170.38;6223470;23;20377;-95
2023/07/26 08:18:25;;;;;;;0.20;0.20;;;;;;;17.31;100.00;99160.69;6199001;23;20065;-95
2023/07/26 08:20:56;;;;;;;0.10;0.10;;;;;;;17.35;100.00;99155.59;6225152;23;20026;-96
2023/07/26 08:23:27;;;;;;;0.05;0.05;;;;;;;17.41;100.00;99153.59;6205273;23;20231;-95
2023/07/26 08:25:53;;;;;;;0.00;0.00;;;;;;;17.62;100.00;99197.03;6198660;23;20022;-96
2023/07/26 08:28:18;;;;;;;0.90;0.73;;;;;;;17.41;100.00;99161.22;6209688;23;20091;-96
2023/07/26 08:30:44;;;;;;;0.00;0.00;;;;;;;17.42;100.00;99166.34;6208310;23;20019;-96
2023/07/26 08:33:10;;;;;;;0.10;0.10;;;;;;;17.42;100.00;99188.78;6207225;23;20068;-96
2023/07/26 08:35:39;;;;;;;0.10;0.10;;;;;;;17.44;100.00;99191.81;6204847;23;20024;-96
2023/07/26 08:38:05;;;;;;;0.10;0.10;;;;;;;17.51;100.00;99196.19;6203726;23;20012;-96
2023/07/26 08:40:31;;;;;;;0.00;0.00;;;;;;;17.49;100.00;99177.06;6201610;23;20026;-96
2023/07/26 08:42:57;;;;;;;0.20;0.20;;;;;;;17.78;100.00;99203.19;6202665;23;20012;-95
2023/07/26 08:45:23;;;;;;;0.28;0.28;;;;;;;17.76;100.00;99186.84;6226644;23;20042;-96
2023/07/26 08:47:49;;;;;;;0.00;0.00;;;;;;;18.01;100.00;99210.34;6228219;23;20025;-96
2023/07/26 08:50:17;;;;;;;0.30;0.22;;;;;;;17.94;100.00;99188.41;6228261;23;20069;-95
2023/07/26 08:52:47;;;;;;;0.85;0.32;;;;;;;18.20;100.00;99183.31;6205558;23;20418;-95
2023/07/26 08:55:31;;;;;;;0.10;0.10;;;;;;;18.70;100.00;99203.00;6207243;23;19996;-95
2023/07/26 08:57:58;;;;;;;0.10;0.10;;;;;;;18.76;100.00;99172.09;6209199;23;20008;-94
2023/07/26 09:00:26;;;;;;;0.00;0.00;;;;;;;18.76;100.00;99178.50;6203065;23;20430;-96
2023/07/26 09:03:00;;;;;;;0.00;0.00;;;;;;;19.03;100.00;99169.22;6203692;23;20018;-96
2023/07/26 09:05:29;;;;;;;0.08;0.08;;;;;;;18.99;100.00;99176.38;6214324;23;20010;-96
2023/07/26 10:04:58;;;;;;;0.20;0.20;;;;;;;20.88;96.84;99248.44;6252510;22;20022;-92
2023/07/26 10:07:28;;;;;;;0.15;0.10;;;;;;;21.00;98.66;99255.50;6223901;22;20077;-91
2023/07/26 10:09:55;;;;;;;0.20;0.20;;;;;;;20.87;94.59;99227.94;6224635;22;20011;-89
2023/07/26 10:12:24;;;;;;;0.32;0.32;;;;;;;21.06;93.01;99238.53;6223531;22;20027;-92
2023/07/26 10:14:52;;;;;;;0.20;0.20;;;;;;;20.94;83.60;99233.03;6223705;22;20015;-92
2023/07/26 10:17:19;;;;;;;0.00;0.00;;;;;;;21.12;79.46;99239.25;6274771;22;20003;-92
2023/07/26 10:19:48;;;;;;;0.10;0.10;;;;;;;21.22;79.79;99252.50;6223870;22;20015;-91
2023/07/26 10:22:15;;;;;;;0.10;0.10;;;;;;;21.32;82.98;99233.91;6224410;22;20034;-92
2023/07/26 10:24:43;;;;;;;0.43;0.32;;;;;;;21.60;76.60;99229.97;6223215;22;20098;-93
2023/07/26 10:27:09;;;;;;;0.45;0.30;;;;;;;21.47;77.23;99205.28;6249506;22;20086;-92
2023/07/26 10:29:35;;;;;;;0.10;0.10;;;;;;;21.65;73.71;99227.09;6249795;22;20007;-91
2023/07/26 10:32:11;;;;;;;0.03;0.03;;;;;;;21.48;75.34;99245.53;6223236;22;20506;-92
2023/07/26 10:34:39;;;;;;;0.40;0.40;;;;;;;21.66;76.56;99244.81;6224538;22;20011;-91
2023/07/26 10:37:18;;;;;;;0.20;0.20;;;;;;;21.75;78.22;99224.69;6222947;22;20465;-90
2023/07/26 10:39:44;;;;;;;0.20;0.10;;;;;;;21.83;80.54;99248.19;6223526;22;20060;-89
2023/07/26 10:42:26;;;;;;;0.10;0.10;;;;;;;21.92;77.75;99250.63;6222512;22;20089;-90
2023/07/26 10:44:53;;;;;;;0.35;0.10;;;;;;;21.65;76.40;99238.38;6223895;22;20026;-90
2023/07/26 10:47:19;;;;;;;0.30;0.30;;;;;;;21.53;77.37;99253.16;6223335;22;20376;-89
2023/07/26 10:49:49;;;;;;;0.43;0.40;;;;;;;21.25;77.86;99226.06;6224106;22;20019;-89
2023/07/26 10:52:15;;;;;;;0.05;0.05;;;;;;;21.34;78.54;99247.50;6249805;22;20011;-93
2023/07/26 10:54:51;;;;;;;0.20;0.20;;;;;;;21.40;70.63;99251.00;6249674;22;20515;-90
2023/07/26 11:04:42;;;;;;;0.22;0.22;;;;;;;21.25;70.26;99257.06;6239214;23;20016;-92
2023/07/26 11:07:10;;;;;;;0.20;0.20;;;;;;;21.62;70.71;99252.81;6212685;23;20517;-91
2023/07/26 11:09:36;;;;;;;0.22;0.22;;;;;;;21.77;65.73;99247.47;6214764;23;20022;-93
2023/07/26 11:12:52;;;;;;;0.13;0.13;;;;;;;22.07;60.97;99279.19;6189195;23;20099;-92
2023/07/26 11:15:40;;;;;;;0.13;0.13;;;;;;;21.64;63.63;99250.19;6212068;23;20039;-91
2023/07/26 11:18:06;;;;;;;0.10;0.10;;;;;;;21.68;64.29;99256.31;6212692;23;20035;-91
2023/07/26 11:20:32;;;;;;;0.20;0.20;;;;;;;21.80;67.98;99266.16;6211873;23;20039;-91
2023/07/26 11:22:58;;;;;;;0.15;0.15;;;;;;;21.96;64.91;99251.09;6239237;23;20705;-91
2023/07/26 11:25:23;;;;;;;0.10;0.10;;;;;;;22.00;61.69;99268.50;6213201;23;20016;-90
2023/07/26 11:27:53;;;;;;;0.77;0.70;;;;;;;21.67;62.75;99271.75;6187870;23;20514;-92
2023/07/26 11:30:19;;;;;;;0.57;0.52;;;;;;;21.33;67.62;99258.00;6237660;23;20390;-92
2023/07/26 11:33:03;;;;;;;0.40;0.40;;;;;;;20.80;73.72;99262.34;6188161;23;20353;-90
2023/07/26 11:35:42;;;;;;;9.23;1.20;;;;;;;21.25;71.96;99290.91;6213212;23;20065;-90
2023/07/26 11:38:14;;;;;;;0.55;0.55;;;;;;;21.66;67.79;99279.44;6238578;23;20213;-92
2023/07/26 11:40:43;;;;;;;0.05;0.05;;;;;;;22.17;65.74;99296.50;6213522;23;20020;-92
2023/07/26 11:43:10;;;;;;;0.13;0.13;;;;;;;22.21;62.18;99266.66;6214643;23;20027;-93
2023/07/26 11:45:37;;;;;;;0.63;0.47;;;;;;;22.32;61.30;99283.44;6240096;22;20337;-92
2023/07/26 11:48:09;;;;;;;0.40;0.40;;;;;;;22.44;60.80;99267.09;6238761;23;20012;-92
2023/07/26 11:50:37;;;;;;;0.20;0.20;;;;;;;22.36;59.79;99232.28;6212140;23;20514;-91
2023/07/26 11:56:15;;;;;;;0.20;0.20;;;;;;;22.99;61.42;99237.16;6194424;22;20530;-91
2023/07/26 11:58:51;;;;;;;0.40;0.40;;;;;;;22.97;57.55;99251.06;6238701;23;20180;-92
2023/07/26 12:01:20;;;;;;;0.82;0.30;;;;;;;23.02;55.86;99253.03;6243421;22;20023;-93
2023/07/26 12:03:49;;;;;;;0.43;0.40;;;;;;;23.24;55.87;99263.94;6273687;22;20015;-92
2023/07/26 12:06:15;;;;;;;0.20;0.20;;;;;;;22.96;55.26;99243.88;6246662;22;20031;-94
2023/07/26 12:08:41;;;;;;;0.28;0.28;;;;;;;23.11;55.06;99252.59;6301210;22;20014;-93
2023/07/26 12:11:07;;;;;;;0.38;0.38;;;;;;;23.20;53.52;99245.75;6301701;22;20060;-92
2023/07/26 12:13:33;;;;;;;0.30;0.30;;;;;;;23.32;53.87;99237.81;6273135;22;20012;-93
2023/07/26 12:16:01;;;;;;;0.43;0.43;;;;;;;22.96;53.77;99238.22;6246558;22;20541;-91
2023/07/26 12:19:13;;;;;;;2.30;0.45;;;;;;;22.86;54.30;99222.97;6249035;22;20149;-94
2023/07/26 12:21:47;;;;;;;0.20;0.20;;;;;;;22.87;53.57;99235.06;6250477;22;20078;-93
2023/07/26 12:24:33;;;;;;;7.20;0.35;;;;;;;23.35;50.83;99268.63;6248859;22;20042;-93
2023/07/26 12:26:59;;;;;;;0.10;0.10;;;;;;;22.97;53.83;99236.91;6275484;22;20447;-91
2023/07/26 12:29:28;;;;;;;0.40;0.30;;;;;;;23.33;49.23;99247.84;6252917;22;20011;-92
2023/07/26 12:32:03;;;;;;;0.20;0.20;;;;;;;23.50;50.41;99273.75;6250886;22;20015;-93
2023/07/26 12:34:51;;;;;;;0.15;0.15;;;;;;;23.38;48.53;99232.78;6276632;22;20056;-93
2023/07/26 12:37:31;;;;;;;0.45;0.40;;;;;;;23.31;50.33;99261.75;6277961;22;20026;-94
2023/07/26 12:40:23;;;;;;;0.32;0.30;;;;;;;22.64;48.70;99231.84;6252665;22;20051;-93
2023/07/26 12:43:12;;;;;;;0.10;0.10;;;;;;;22.73;48.24;99231.44;6244988;22;20011;-92
2023/07/26 12:45:37;;;;;;;0.40;0.40;;;;;;;23.23;47.58;99256.75;6262404;22;20012;-92
2023/07/26 12:48:08;;;;;;;0.17;0.17;;;;;;;23.38;46.15;99244.13;6286851;22;20198;-91
2023/07/26 12:50:34;;;;;;;0.30;0.30;;;;;;;23.37;44.20;99225.63;6256696;22;20014;-93
2023/07/26 12:53:00;;;;;;;0.20;0.20;;;;;;;23.43;44.39;99220.63;6303385;22;20015;-94
2023/07/26 12:55:40;;;;;;;;;;;;;;;;;;;;;
2023/07/26 12:58:09;;;;;;;0.85;0.70;;;;;;;24.02;45.25;99239.69;6276651;22;20011;-92
2023/07/26 13:00:35;;;;;;;0.30;0.30;;;;;;;24.30;43.50;99246.84;6260759;22;20029;-94
2023/07/26 13:03:00;;;;;;;0.00;0.00;;;;;;;24.53;44.17;99256.31;6253709;22;20011;-92
2023/07/26 13:05:26;;;;;;;0.20;0.20;;;;;;;24.69;43.51;99255.16;6305361;22;20056;-93